Time;durP1;ratioP1;P1;durP2;ratioP2;P2;SDS_P1;SDS_P2;PMS_P1;PMS_P2;Temp;Humidity;BMP_temperature;BMP_pressure;BME280_temperature;BME280_humidity;BME280_pressure;Samples;Min_cycle;Max_cycle;Signal;HPM_P1;HPM_P2
2022/05/08 00:03:21;;;;;;;29.35;13.95;;;;;;;10.86;68.36;101419.03;8562073;33;21210;-74
2022/05/08 00:08:28;;;;;;;26.20;13.00;;;;;;;10.68;68.97;101413.94;8564586;33;20414;-74
2022/05/08 00:13:32;;;;;;;25.77;12.88;;;;;;;10.62;69.11;101414.34;8535791;33;20443;-74
2022/05/08 00:18:35;;;;;;;25.40;13.25;;;;;;;10.59;68.80;101422.59;8517055;33;20360;-74
2022/05/08 00:23:39;;;;;;;27.85;12.02;;;;;;;10.51;68.13;101420.41;8538302;33;20466;-74
2022/05/08 00:28:42;;;;;;;22.20;10.65;;;;;;;10.27;66.98;101416.59;8546687;33;20152;-75
2022/05/08 00:33:45;;;;;;;20.40;9.70;;;;;;;10.03;66.98;101419.00;8555550;33;20505;-74
2022/05/08 00:38:49;;;;;;;23.60;9.30;;;;;;;9.80;67.08;101420.41;8562602;33;20676;-74
2022/05/08 00:43:52;;;;;;;19.50;8.55;;;;;;;9.73;67.06;101427.94;8576725;33;20438;-73
2022/05/08 00:48:55;;;;;;;18.88;7.72;;;;;;;9.52;67.35;101438.16;8542778;33;20451;-74
2022/05/08 00:54:03;;;;;;;18.55;7.28;;;;;;;9.46;67.40;101434.03;8569416;33;20418;-73
2022/05/08 00:59:06;;;;;;;15.15;6.97;;;;;;;9.45;67.10;101437.66;8556717;33;20151;-74
2022/05/08 01:04:09;;;;;;;14.60;6.22;;;;;;;9.38;66.84;101441.69;8556739;33;20487;-76
2022/05/08 01:09:13;;;;;;;19.17;7.20;;;;;;;9.23;66.77;101439.88;8561908;33;20546;-76
2022/05/08 01:14:17;;;;;;;17.73;6.45;;;;;;;9.11;66.98;101440.63;8568976;33;20911;-75
2022/05/08 01:19:20;;;;;;;17.75;5.72;;;;;;;9.12;67.00;101436.97;8540484;33;20227;-75
2022/05/08 01:24:24;;;;;;;14.70;5.80;;;;;;;9.03;67.04;101441.06;8548075;33;20137;-74
2022/05/08 01:29:27;;;;;;;18.05;6.28;;;;;;;9.06;66.99;101441.72;8538490;33;20144;-74
2022/05/08 01:34:30;;;;;;;21.80;6.45;;;;;;;8.90;67.08;101440.88;8557244;33;20438;-74
2022/05/08 01:39:35;;;;;;;20.65;6.65;;;;;;;8.84;67.17;101441.25;8566752;33;20152;-74
2022/05/08 01:44:38;;;;;;;16.17;5.55;;;;;;;8.71;67.44;101437.53;8546929;33;20407;-75
2022/05/08 01:49:43;;;;;;;18.02;5.78;;;;;;;8.73;67.34;101444.53;8546448;33;20131;-74
2022/05/08 01:54:48;;;;;;;15.70;5.85;;;;;;;8.63;67.35;101453.16;8574289;33;20508;-74
2022/05/08 01:59:51;;;;;;;19.48;6.05;;;;;;;8.68;67.27;101460.00;8582985;33;20651;-75
2022/05/08 02:04:54;;;;;;;15.20;5.43;;;;;;;8.66;67.06;101461.88;8535326;33;20711;-73
2022/05/08 02:09:58;;;;;;;18.27;7.18;;;;;;;8.59;66.92;101456.03;8568837;33;20248;-74
2022/05/08 02:15:02;;;;;;;13.15;5.13;;;;;;;8.36;67.50;101467.09;8548420;33;20155;-74
2022/05/08 02:20:08;;;;;;;17.30;5.55;;;;;;;8.31;67.70;101462.00;8556504;33;20144;-74
2022/05/08 02:25:12;;;;;;;17.10;6.13;;;;;;;8.22;68.05;101458.94;8559155;33;20324;-74
2022/05/08 02:30:16;;;;;;;13.82;5.15;;;;;;;8.25;67.95;101474.84;8564927;33;20991;-75
2022/05/08 02:35:21;;;;;;;17.48;5.68;;;;;;;8.39;67.46;101464.25;8563496;33;20442;-75
2022/05/08 02:40:25;;;;;;;15.70;5.80;;;;;;;8.44;67.39;101459.50;8533872;33;20194;-75
2022/05/08 02:45:28;;;;;;;13.60;5.97;;;;;;;8.38;67.30;101470.56;8544454;33;21004;-73
2022/05/08 02:50:32;;;;;;;15.80;5.68;;;;;;;8.35;67.02;101470.72;8549132;33;20513;-73
2022/05/08 03:00:56;;;;;;;20.25;6.35;;;;;;;8.11;67.53;101476.44;8545269;33;20908;-76
2022/05/08 03:06:00;;;;;;;16.20;6.00;;;;;;;8.07;67.56;101476.72;8528771;33;20964;-75
2022/05/08 03:16:28;;;;;;;12.95;4.80;;;;;;;8.18;67.10;101483.22;8539444;33;20481;-76
2022/05/08 03:21:31;;;;;;;13.40;6.40;;;;;;;8.06;67.21;101483.00;8526409;33;20195;-74
2022/05/08 03:26:36;;;;;;;13.43;5.03;;;;;;;7.98;67.38;101495.91;8513167;33;20235;-73
2022/05/08 03:31:40;;;;;;;18.02;5.50;;;;;;;8.02;67.27;101497.50;8535112;33;20613;-73
2022/05/08 03:36:43;;;;;;;17.80;6.30;;;;;;;8.03;67.12;101497.41;8563699;33;20151;-76
2022/05/08 03:41:48;;;;;;;15.50;5.00;;;;;;;7.92;67.11;101502.44;8525500;33;20409;-75
2022/05/08 03:46:51;;;;;;;18.02;6.03;;;;;;;7.81;67.31;101505.69;8555401;33;20251;-75
2022/05/08 03:51:54;;;;;;;17.02;5.40;;;;;;;7.88;67.22;101492.88;8529840;33;20446;-75
2022/05/08 03:56:59;;;;;;;16.75;5.10;;;;;;;8.00;66.93;101484.19;8522247;33;20461;-74
2022/05/08 04:02:02;;;;;;;12.77;4.72;;;;;;;7.97;66.72;101486.16;8547112;33;20217;-75
2022/05/08 04:07:05;;;;;;;10.88;5.07;;;;;;;8.06;66.90;101483.84;8552925;33;20183;-74
2022/05/08 04:12:10;;;;;;;14.82;5.30;;;;;;;8.13;66.59;101489.75;8544128;33;20167;-75
2022/05/08 04:17:13;;;;;;;12.73;4.38;;;;;;;8.09;66.34;101491.75;8564264;33;20144;-75
2022/05/08 04:27:38;;;;;;;13.15;4.97;;;;;;;7.82;67.56;101486.03;8549649;33;20140;-75
2022/05/08 04:32:41;;;;;;;14.15;5.20;;;;;;;7.92;67.17;101483.72;8549893;33;20476;-74
2022/05/08 04:37:45;;;;;;;17.55;4.93;;;;;;;8.01;67.18;101490.41;8553680;33;20430;-76
2022/05/08 04:42:49;;;;;;;14.90;5.18;;;;;;;8.24;66.86;101486.50;8552791;33;20156;-75
2022/05/08 04:47:52;;;;;;;12.18;4.70;;;;;;;8.11;66.40;101503.22;8530429;33;20148;-74
2022/05/08 04:52:55;;;;;;;15.65;6.03;;;;;;;8.26;66.61;101501.53;8531106;33;21003;-75
2022/05/08 04:57:59;;;;;;;18.00;4.78;;;;;;;8.40;66.37;101503.47;8565489;33;20144;-75
2022/05/08 05:03:03;;;;;;;15.95;4.85;;;;;;;8.49;65.74;101513.72;8532015;33;20425;-75
2022/05/08 05:08:07;;;;;;;11.60;4.28;;;;;;;8.68;65.28;101518.06;8541991;33;20163;-75
2022/05/08 05:13:12;;;;;;;14.80;4.50;;;;;;;8.81;64.29;101524.47;8530532;33;20427;-75
2022/05/08 05:18:15;;;;;;;17.20;4.60;;;;;;;8.95;63.71;101527.25;8518672;33;20194;-75
2022/05/08 05:23:18;;;;;;;9.50;3.88;;;;;;;8.98;63.39;101532.44;8594479;28;20544;-75
2022/05/08 05:28:22;;;;;;;11.65;4.05;;;;;;;8.95;62.90;101531.75;8624455;33;20591;-75
2022/05/08 05:33:26;;;;;;;8.18;3.85;;;;;;;9.08;62.49;101524.75;8628722;33;20411;-75
2022/05/08 05:38:29;;;;;;;13.85;4.72;;;;;;;9.20;62.02;101532.09;8630874;33;20497;-76
2022/05/08 05:43:35;;;;;;;7.68;3.83;;;;;;;9.33;62.04;101542.97;8632679;33;20411;-75
2022/05/08 05:48:38;;;;;;;7.70;4.00;;;;;;;9.53;61.83;101547.19;8630768;33;20298;-75
2022/05/08 05:53:41;;;;;;;12.30;4.22;;;;;;;9.64;60.61;101547.41;8628723;33;20177;-75
2022/05/08 05:58:45;;;;;;;12.20;3.60;;;;;;;9.86;60.68;101546.19;8630951;33;20238;-76
2022/05/08 06:03:48;;;;;;;12.52;4.28;;;;;;;9.92;59.37;101552.03;8625712;33;21009;-75
2022/05/08 06:08:51;;;;;;;9.82;4.00;;;;;;;9.86;59.32;101563.16;8621883;33;20534;-75
2022/05/08 06:13:56;;;;;;;9.35;3.67;;;;;;;9.87;59.39;101564.91;8628927;33;20513;-76
2022/05/08 06:18:59;;;;;;;13.30;5.05;;;;;;;9.86;59.77;101573.88;8629735;33;20249;-76
2022/05/08 06:24:02;;;;;;;10.98;4.50;;;;;;;10.30;58.70;101582.91;8615925;33;20641;-75
2022/05/08 06:29:06;;;;;;;11.07;3.60;;;;;;;11.04;59.11;101584.53;8631384;33;20533;-76
2022/05/08 06:34:10;;;;;;;10.55;3.53;;;;;;;11.57;56.21;101584.72;8638414;33;20438;-75
2022/05/08 06:39:13;;;;;;;7.85;3.30;;;;;;;11.88;54.84;101583.56;8628094;33;20216;-75
2022/05/08 06:44:18;;;;;;;8.38;3.67;;;;;;;11.60;55.05;101584.53;8602160;33;21010;-75
2022/05/08 06:49:21;;;;;;;6.57;3.00;;;;;;;12.13;53.93;101591.69;8629399;33;20939;-74
2022/05/08 06:54:26;;;;;;;7.15;3.80;;;;;;;12.11;53.52;101579.28;8624113;33;20139;-75
2022/05/08 07:04:51;;;;;;;10.48;3.47;;;;;;;11.99;53.27;101585.53;8630184;33;20420;-76
2022/05/08 07:09:55;;;;;;;11.90;4.70;;;;;;;12.42;52.35;101585.28;8627444;33;21091;-76
2022/05/08 07:15:00;;;;;;;12.15;3.35;;;;;;;12.57;51.37;101592.28;8626738;33;20151;-76
2022/05/08 07:20:06;;;;;;;10.77;3.65;;;;;;;12.65;51.35;101595.31;8623838;33;20612;-73
2022/05/08 07:25:11;;;;;;;11.13;3.17;;;;;;;12.88;51.20;101598.19;8634643;33;20463;-76
2022/05/08 07:30:18;;;;;;;7.20;3.33;;;;;;;12.66;51.20;101601.56;8637914;33;20979;-75
2022/05/08 07:40:47;;;;;;;12.18;3.60;;;;;;;12.63;50.90;101599.94;8641223;33;20415;-75
2022/05/08 07:45:51;;;;;;;12.73;3.58;;;;;;;12.59;50.92;101610.09;8642826;33;20151;-76
2022/05/08 07:50:55;;;;;;;11.30;3.97;;;;;;;12.75;50.92;101607.19;8642372;33;20426;-75
2022/05/08 07:55:58;;;;;;;16.48;4.40;;;;;;;12.75;50.52;101601.78;8637228;33;20175;-75
2022/05/08 08:01:04;;;;;;;10.40;3.38;;;;;;;12.99;50.89;101607.22;8638724;33;20413;-76
2022/05/08 08:06:07;;;;;;;6.90;3.22;;;;;;;12.95;51.07;101602.19;8616057;33;20186;-75
2022/05/08 08:11:13;;;;;;;8.15;3.25;;;;;;;12.51;51.09;101614.28;8633565;33;20136;-75
2022/05/08 08:16:17;;;;;;;12.85;3.88;;;;;;;12.60;51.83;101616.34;8638411;33;20151;-75
2022/05/08 08:21:21;;;;;;;15.45;5.10;;;;;;;12.74;51.49;101620.75;8653625;33;20471;-75
2022/05/08 08:26:24;;;;;;;10.25;3.35;;;;;;;13.13;51.15;101618.88;8656425;33;20212;-75
2022/05/08 08:31:28;;;;;;;11.35;3.60;;;;;;;13.29;50.19;101622.19;8659791;33;20246;-75
2022/05/08 08:36:31;;;;;;;11.82;3.50;;;;;;;13.74;49.24;101633.31;8659852;33;21093;-75
2022/05/08 08:41:37;;;;;;;9.30;3.58;;;;;;;14.01;48.68;101637.56;8660797;33;20559;-73
2022/05/08 08:52:06;;;;;;;10.45;3.67;;;;;;;14.04;48.08;101640.03;8667677;33;20481;-76
2022/05/08 08:57:09;;;;;;;12.88;3.97;;;;;;;14.67;46.65;101632.50;8640505;33;20533;-77
2022/05/08 09:02:19;;;;;;;12.60;4.95;;;;;;;15.20;46.32;101628.22;8632935;33;20418;-75
2022/05/08 09:07:43;;;;;;;15.00;4.30;;;;;;;15.70;44.19;101628.66;8631174;33;20143;-76
2022/05/08 09:13:03;;;;;;;8.95;3.75;;;;;;;16.07;44.21;101636.41;8631801;33;20147;-76
2022/05/08 09:18:14;;;;;;;10.27;3.65;;;;;;;15.31;44.44;101630.06;8620776;33;20262;-75
2022/05/08 09:23:19;;;;;;;10.20;4.20;;;;;;;15.66;43.23;101624.50;8605700;33;20546;-75
2022/05/08 09:28:26;;;;;;;9.52;4.07;;;;;;;15.72;44.53;101630.41;8606822;33;20563;-76
2022/05/08 09:33:34;;;;;;;8.90;3.90;;;;;;;15.60;43.86;101622.28;8634255;33;20572;-75
2022/05/08 09:38:49;;;;;;;9.73;3.50;;;;;;;16.14;43.10;101613.19;8627605;33;20162;-77
2022/05/08 09:43:54;;;;;;;7.50;3.78;;;;;;;16.66;42.70;101612.44;8626793;33;20139;-76
2022/05/08 09:49:00;;;;;;;5.88;3.05;;;;;;;16.95;40.83;101612.56;8627596;33;20427;-74
2022/05/08 09:54:03;;;;;;;10.32;3.60;;;;;;;16.87;41.31;101604.25;8631604;33;20484;-76
2022/05/08 09:59:08;;;;;;;8.00;3.60;;;;;;;17.22;40.95;101610.16;8603866;33;20618;-75
2022/05/08 10:04:13;;;;;;;7.45;3.92;;;;;;;17.61;40.80;101604.78;8624851;33;20599;-76
2022/05/08 10:14:45;;;;;;;6.57;3.42;;;;;;;17.14;39.37;101606.38;8601382;33;20565;-75
2022/05/08 10:19:50;;;;;;;6.68;3.22;;;;;;;17.01;40.45;101606.59;8626550;33;20416;-75
2022/05/08 10:24:57;;;;;;;6.57;3.90;;;;;;;17.66;39.47;101605.22;8617379;33;20635;-75
2022/05/08 10:30:31;;;;;;;6.22;2.83;;;;;;;17.76;39.33;101594.34;8615033;33;20897;-76
2022/05/08 10:35:35;;;;;;;10.98;3.30;;;;;;;17.77;40.76;101590.66;8616189;33;20198;-76
2022/05/08 10:40:39;;;;;;;7.85;3.40;;;;;;;17.53;39.85;101598.34;8630141;33;20463;-77
2022/05/08 10:45:43;;;;;;;10.45;3.42;;;;;;;18.20;39.15;101597.50;8634893;33;20444;-77
2022/05/08 10:50:52;;;;;;;8.33;3.03;;;;;;;18.35;38.89;101598.78;8631168;33;20470;-77
2022/05/08 10:56:03;;;;;;;8.30;3.17;;;;;;;18.32;38.02;101593.66;8635366;33;20639;-77
2022/05/08 11:01:10;;;;;;;9.15;3.53;;;;;;;18.13;37.48;101593.69;8616016;33;20418;-78
2022/05/08 11:06:22;;;;;;;5.13;2.92;;;;;;;18.82;38.75;101594.41;8629081;33;20437;-77
2022/05/08 11:11:25;;;;;;;5.22;3.50;;;;;;;19.61;36.90;101592.00;8624145;33;20178;-76
2022/05/08 11:16:36;;;;;;;9.70;3.35;;;;;;;19.73;35.85;101589.03;8623795;33;20139;-76
2022/05/08 11:21:42;;;;;;;9.77;3.67;;;;;;;19.15;35.87;101577.47;8640611;33;20542;-76
2022/05/08 11:26:45;;;;;;;6.72;3.22;;;;;;;19.21;37.74;101581.44;8639241;33;20158;-75
2022/05/08 11:37:07;;;;;;;7.30;3.20;;;;;;;20.23;35.63;101577.53;8634358;33;20447;-75
2022/05/08 11:42:10;;;;;;;7.50;4.22;;;;;;;20.34;35.79;101575.41;8639265;33;20147;-76
2022/05/08 11:47:13;;;;;;;9.57;3.38;;;;;;;20.76;34.64;101571.06;8637521;33;20422;-75
2022/05/08 11:52:22;;;;;;;8.27;3.28;;;;;;;20.89;34.05;101574.19;8641063;33;21127;-76
2022/05/08 11:57:25;;;;;;;9.05;3.42;;;;;;;21.01;33.02;101572.91;8626913;33;20612;-75
2022/05/08 12:02:39;;;;;;;9.57;4.10;;;;;;;20.64;33.96;101561.44;8651837;33;20453;-76
2022/05/08 12:07:45;;;;;;;8.20;3.85;;;;;;;20.94;33.90;101555.44;8652293;33;20519;-76
2022/05/08 12:13:05;;;;;;;10.57;4.80;;;;;;;21.42;33.64;101547.63;8661438;33;20948;-77
2022/05/08 12:18:09;;;;;;;8.43;4.57;;;;;;;21.56;33.63;101546.09;8657166;33;20134;-76
2022/05/08 12:23:16;;;;;;;9.15;4.72;;;;;;;22.00;31.16;101532.97;8645855;33;20628;-75
2022/05/08 12:28:21;;;;;;;10.15;4.90;;;;;;;21.88;31.12;101542.53;8664753;33;20498;-75
2022/05/08 12:33:24;;;;;;;8.82;4.75;;;;;;;21.58;31.89;101531.22;8661737;33;20578;-75
2022/05/08 12:38:28;;;;;;;6.60;3.95;;;;;;;21.60;31.85;101528.31;8658031;33;20183;-75
2022/05/08 12:43:31;;;;;;;8.40;4.20;;;;;;;21.56;30.89;101524.22;8648371;33;21072;-76
2022/05/08 12:48:34;;;;;;;6.90;3.83;;;;;;;21.87;30.50;101530.75;8638594;33;20446;-75
2022/05/08 12:53:42;;;;;;;5.60;3.28;;;;;;;22.12;29.65;101522.53;8641901;33;20407;-75
2022/05/08 13:04:06;;;;;;;8.05;3.53;;;;;;;22.58;29.20;101511.84;8640433;33;21319;-75
2022/05/08 13:09:11;;;;;;;5.43;3.28;;;;;;;22.48;30.00;101511.19;8641400;33;20998;-75
2022/05/08 13:14:14;;;;;;;6.07;3.63;;;;;;;23.00;30.28;101502.41;8640578;33;20150;-75
2022/05/08 13:19:17;;;;;;;5.90;3.33;;;;;;;22.95;29.03;101508.41;8633563;33;20147;-75
2022/05/08 13:24:21;;;;;;;7.10;3.38;;;;;;;22.83;27.93;101500.81;8640682;33;20222;-75
2022/05/08 13:29:25;;;;;;;5.38;3.10;;;;;;;22.98;27.24;101499.88;8641947;33;20479;-75
2022/05/08 13:34:28;;;;;;;6.20;3.17;;;;;;;22.88;27.14;101482.78;8637865;33;20232;-74
2022/05/08 13:39:33;;;;;;;6.95;3.03;;;;;;;23.19;27.83;101488.28;8637607;33;21076;-75
2022/05/08 13:44:36;;;;;;;4.30;2.70;;;;;;;23.28;26.10;101486.34;8639980;33;20589;-74
2022/05/08 13:49:39;;;;;;;8.80;2.85;;;;;;;22.40;27.62;101479.19;8636760;33;20569;-74
2022/05/08 13:54:44;;;;;;;6.95;3.03;;;;;;;21.90;26.39;101472.13;8636701;33;20504;-75
2022/05/08 13:59:47;;;;;;;6.28;2.60;;;;;;;22.74;26.40;101475.34;8632303;33;20242;-74
2022/05/08 14:04:50;;;;;;;4.97;2.50;;;;;;;22.20;25.43;101470.53;8636487;33;20143;-74
2022/05/08 14:09:55;;;;;;;3.85;2.75;;;;;;;21.61;28.45;101465.28;8636025;33;20246;-75
2022/05/08 14:14:58;;;;;;;3.88;2.50;;;;;;;22.53;27.88;101464.97;8636750;27;20448;-73
2022/05/08 14:20:03;;;;;;;8.18;3.53;;;;;;;23.11;27.86;101465.56;8582467;33;20227;-73
2022/05/08 14:25:09;;;;;;;4.82;3.35;;;;;;;23.05;28.36;101461.63;8592874;33;20972;-74
2022/05/08 14:30:13;;;;;;;6.15;2.83;;;;;;;23.07;28.26;101459.56;8608009;33;20675;-73
2022/05/08 14:40:38;;;;;;;6.03;2.70;;;;;;;23.86;27.70;101446.50;8623240;33;21044;-71
2022/05/08 14:45:41;;;;;;;5.63;2.72;;;;;;;23.74;27.29;101449.81;8580996;33;20502;-73
2022/05/08 14:50:44;;;;;;;5.30;2.83;;;;;;;23.51;27.62;101450.72;8589268;33;20409;-73
2022/05/08 14:55:50;;;;;;;6.35;3.00;;;;;;;23.54;25.88;101444.84;8597915;33;20412;-73
2022/05/08 15:00:53;;;;;;;5.50;2.95;;;;;;;23.07;27.71;101445.03;8569785;33;20433;-73
2022/05/08 15:05:56;;;;;;;3.65;2.38;;;;;;;23.15;27.32;101436.78;8598277;33;21023;-73
2022/05/08 15:11:01;;;;;;;4.75;2.33;;;;;;;23.52;25.94;101432.38;8589728;33;20868;-73
2022/05/08 15:16:04;;;;;;;6.10;2.58;;;;;;;23.42;26.17;101436.22;8619117;33;20735;-73
2022/05/08 15:21:07;;;;;;;6.07;2.72;;;;;;;23.14;27.57;101432.31;8616770;33;20465;-73
2022/05/08 15:26:13;;;;;;;3.85;2.30;;;;;;;23.54;27.88;101439.38;8628763;33;20442;-73
2022/05/08 15:31:16;;;;;;;3.22;2.47;;;;;;;23.44;26.47;101422.31;8627758;33;20331;-71
2022/05/08 15:36:19;;;;;;;5.97;2.42;;;;;;;23.46;25.93;101430.38;8616985;33;20152;-72
2022/05/08 15:41:23;;;;;;;4.68;2.40;;;;;;;23.20;25.47;101421.50;8564620;33;20247;-72
2022/05/08 15:46:26;;;;;;;3.63;2.10;;;;;;;23.06;25.18;101418.63;8612729;33;20511;-72
2022/05/08 15:51:31;;;;;;;4.72;2.53;;;;;;;23.17;24.86;101421.84;8614791;33;20147;-72
2022/05/08 15:56:35;;;;;;;4.40;2.50;;;;;;;23.24;24.62;101421.13;8621682;33;20636;-72
2022/05/08 16:01:42;;;;;;;4.25;2.40;;;;;;;23.11;25.40;101419.81;8602910;33;20139;-72
2022/05/08 16:06:45;;;;;;;6.10;2.55;;;;;;;23.11;24.49;101427.19;8609165;33;20202;-73
2022/05/08 16:11:50;;;;;;;4.53;2.30;;;;;;;23.21;23.97;101423.19;8641544;33;20411;-72
2022/05/08 16:27:36;;;;;;;4.45;2.50;;;;;;;23.42;24.81;101417.03;8627877;33;20469;-72
2022/05/08 16:32:39;;;;;;;4.65;2.03;;;;;;;23.49;25.49;101419.88;8591906;33;20293;-73
2022/05/08 16:37:42;;;;;;;5.82;2.35;;;;;;;23.17;25.41;101404.53;8593772;33;20568;-72
2022/05/08 16:42:49;;;;;;;5.10;2.08;;;;;;;23.29;25.19;101405.84;8605927;33;20198;-72
2022/05/08 16:47:53;;;;;;;5.78;3.25;;;;;;;23.58;25.31;101405.03;8618690;33;20151;-72
2022/05/08 16:52:56;;;;;;;5.55;2.35;;;;;;;22.84;24.70;101403.88;8630508;33;20192;-72
2022/05/08 16:58:01;;;;;;;7.10;2.55;;;;;;;23.87;25.94;101411.66;8581606;33;20301;-73
2022/05/08 17:03:05;;;;;;;4.55;2.40;;;;;;;27.31;22.38;101391.91;8590849;33;20412;-72
2022/05/08 17:08:09;;;;;;;5.45;2.50;;;;;;;28.94;20.62;101401.09;8600847;33;20544;-72
2022/05/08 17:13:14;;;;;;;6.97;2.53;;;;;;;29.34;19.85;101397.22;8582615;33;20450;-72
2022/05/08 17:18:17;;;;;;;4.95;3.05;;;;;;;28.96;20.12;101402.78;8609813;33;20226;-72
2022/05/08 17:23:22;;;;;;;6.03;3.92;;;;;;;29.12;20.61;101397.59;8632497;33;20201;-72
2022/05/08 17:33:47;;;;;;;6.38;3.38;;;;;;;28.35;20.94;101401.38;8618120;33;20663;-72
2022/05/08 17:38:51;;;;;;;3.63;3.03;;;;;;;26.22;22.27;101401.94;8607646;33;20635;-72
2022/05/08 17:43:55;;;;;;;6.40;3.97;;;;;;;23.20;25.16;101404.16;8597360;33;20140;-72
2022/05/08 17:48:58;;;;;;;5.20;3.17;;;;;;;23.10;25.59;101404.41;8586354;33;20205;-72
2022/05/08 17:54:02;;;;;;;5.85;2.67;;;;;;;23.57;25.27;101397.88;8583781;33;20629;-72
2022/05/08 17:59:06;;;;;;;5.85;2.50;;;;;;;21.87;27.08;101402.22;8592952;33;20997;-71
2022/05/08 18:09:31;;;;;;;11.43;4.03;;;;;;;18.17;32.95;101409.34;8616424;33;20415;-72
2022/05/08 18:14:36;;;;;;;14.05;3.80;;;;;;;17.67;33.98;101407.72;8626533;33;20428;-72
2022/05/08 18:19:39;;;;;;;8.13;3.10;;;;;;;17.12;34.49;101423.75;8632398;33;20554;-72
2022/05/08 18:24:42;;;;;;;6.35;2.63;;;;;;;16.77;35.20;101436.84;8590557;33;20152;-72
2022/05/08 18:29:47;;;;;;;5.53;3.17;;;;;;;16.61;36.44;101436.50;8600224;33;20563;-73
2022/05/08 18:34:52;;;;;;;6.53;3.10;;;;;;;16.26;36.32;101443.22;8612364;33;20218;-72
2022/05/08 18:39:57;;;;;;;7.03;3.05;;;;;;;16.17;36.48;101452.13;8617827;33;20461;-71
2022/05/08 18:45:02;;;;;;;8.00;3.67;;;;;;;15.99;36.68;101446.50;8626626;33;20147;-71
2022/05/08 18:50:07;;;;;;;4.43;3.17;;;;;;;15.90;37.07;101447.28;8622233;33;20610;-71
2022/05/08 18:55:10;;;;;;;8.50;3.60;;;;;;;15.93;38.26;101456.03;8598348;33;20613;-71
2022/05/08 19:00:16;;;;;;;6.20;3.70;;;;;;;15.69;38.66;101456.28;8620788;33;20422;-71
2022/05/08 19:05:21;;;;;;;6.05;3.55;;;;;;;15.53;39.32;101463.16;8621582;33;20497;-71
2022/05/08 19:10:25;;;;;;;6.13;2.63;;;;;;;15.33;40.80;101464.78;8617139;33;20463;-72
2022/05/08 19:15:30;;;;;;;5.53;2.70;;;;;;;15.05;41.16;101475.22;8617637;33;21215;-72
2022/05/08 19:20:33;;;;;;;8.07;3.17;;;;;;;15.00;40.46;101475.63;8610624;33;20154;-71
2022/05/08 19:25:37;;;;;;;5.70;3.22;;;;;;;14.89;40.66;101485.59;8611770;33;20156;-71
2022/05/08 19:30:42;;;;;;;6.35;3.13;;;;;;;14.76;40.93;101483.91;8579275;33;21150;-72
2022/05/08 19:41:05;;;;;;;6.93;3.58;;;;;;;14.51;41.75;101501.25;8588958;33;20250;-71
2022/05/08 19:46:11;;;;;;;8.25;3.55;;;;;;;14.48;41.83;101500.63;8599431;33;20458;-71
2022/05/08 19:51:14;;;;;;;7.93;3.95;;;;;;;14.49;40.93;101491.53;8586565;33;20496;-72
2022/05/08 19:56:18;;;;;;;8.07;3.38;;;;;;;14.38;41.32;101495.94;8607961;33;20440;-72
2022/05/08 20:01:23;;;;;;;6.75;4.25;;;;;;;14.25;41.75;101497.03;8584590;33;20541;-72
2022/05/08 20:06:26;;;;;;;9.77;3.75;;;;;;;14.18;41.58;101509.28;8640627;33;20200;-72
2022/05/08 20:11:29;;;;;;;9.23;3.65;;;;;;;13.98;42.28;101505.44;8632280;33;20187;-72
2022/05/08 20:16:33;;;;;;;4.80;3.25;;;;;;;13.83;42.94;101511.06;8629525;33;20205;-72
2022/05/08 20:26:57;;;;;;;7.68;3.22;;;;;;;13.64;43.31;101505.34;8610895;33;20457;-71
2022/05/08 20:32:02;;;;;;;7.17;3.43;;;;;;;13.51;43.52;101518.06;8626989;33;20413;-72
2022/05/08 20:37:06;;;;;;;6.65;3.97;;;;;;;13.55;43.75;101516.84;8620273;33;20629;-72
2022/05/08 20:42:09;;;;;;;6.38;3.60;;;;;;;13.42;44.31;101519.63;8631588;33;20511;-72
2022/05/08 20:47:14;;;;;;;9.80;3.85;;;;;;;13.34;44.58;101522.84;8655930;33;20560;-72
2022/05/08 20:52:17;;;;;;;4.93;3.15;;;;;;;13.21;44.68;101531.00;8644196;33;20281;-71
2022/05/08 20:57:20;;;;;;;8.25;3.30;;;;;;;13.17;44.58;101525.97;8594449;33;20198;-71
2022/05/08 21:02:24;;;;;;;10.23;3.92;;;;;;;13.04;44.29;101528.69;8587311;33;20178;-71
2022/05/08 21:12:50;;;;;;;7.80;3.03;;;;;;;12.87;45.38;101540.72;8618585;33;20517;-72
2022/05/08 21:17:55;;;;;;;8.73;3.55;;;;;;;12.59;45.92;101534.63;8630151;33;20280;-72
2022/05/08 21:22:58;;;;;;;5.72;3.35;;;;;;;12.53;45.71;101539.56;8602319;33;20151;-71
2022/05/08 21:28:01;;;;;;;8.23;3.15;;;;;;;12.40;45.87;101547.66;8597284;33;20234;-72
2022/05/08 21:33:06;;;;;;;5.88;3.47;;;;;;;12.36;45.77;101548.84;8624547;33;21040;-72
2022/05/08 21:38:09;;;;;;;7.18;2.97;;;;;;;12.27;45.91;101553.00;8630359;33;20154;-72
2022/05/08 21:43:12;;;;;;;6.55;2.80;;;;;;;12.17;46.11;101554.63;8632572;33;20543;-72
2022/05/08 21:48:16;;;;;;;6.57;3.20;;;;;;;12.09;46.34;101555.13;8628708;33;20446;-72
2022/05/08 21:53:19;;;;;;;5.63;2.70;;;;;;;12.03;46.64;101557.41;8607320;33;20435;-72
2022/05/08 21:58:22;;;;;;;7.72;2.90;;;;;;;12.11;46.85;101561.28;8631930;33;20444;-72
2022/05/08 22:03:27;;;;;;;7.45;3.30;;;;;;;12.06;46.68;101563.44;8622933;33;20454;-72
2022/05/08 22:08:30;;;;;;;7.50;3.17;;;;;;;11.90;47.29;101576.22;8592131;33;20201;-72
2022/05/08 22:13:34;;;;;;;6.35;3.08;;;;;;;11.70;47.46;101574.88;8575846;33;20409;-72
2022/05/08 22:23:59;;;;;;;6.60;2.80;;;;;;;11.76;47.67;101573.59;8599146;33;20655;-72
2022/05/08 22:29:02;;;;;;;5.90;3.00;;;;;;;11.78;47.58;101567.16;8608739;33;20630;-71
2022/05/08 22:34:06;;;;;;;8.38;3.08;;;;;;;11.73;47.28;101567.44;8608974;33;20296;-71
2022/05/08 22:39:09;;;;;;;9.90;3.90;;;;;;;11.67;47.66;101572.41;8614036;33;20414;-71
2022/05/08 22:44:12;;;;;;;12.73;3.65;;;;;;;11.64;47.88;101572.59;8587616;33;20419;-71
2022/05/08 22:49:17;;;;;;;6.60;3.13;;;;;;;11.60;47.95;101571.97;8626165;33;20407;-72
2022/05/08 22:54:20;;;;;;;9.18;3.33;;;;;;;11.21;49.12;101581.66;8606416;33;20296;-72
2022/05/08 22:59:23;;;;;;;8.32;3.15;;;;;;;11.00;49.47;101580.34;8602027;33;20233;-71
2022/05/08 23:04:27;;;;;;;8.75;3.38;;;;;;;10.17;51.42;101575.63;8575884;33;20281;-72
2022/05/08 23:09:31;;;;;;;7.07;4.05;;;;;;;9.69;53.28;101582.03;8616901;33;20446;-71
2022/05/08 23:20:09;;;;;;;7.07;2.97;;;;;;;9.05;54.83;101579.41;8596064;33;20452;-71
2022/05/08 23:25:16;;;;;;;12.18;4.30;;;;;;;9.23;54.92;101573.94;8609278;33;20661;-72
2022/05/08 23:30:24;;;;;;;7.32;3.13;;;;;;;9.87;54.32;101581.00;8578900;33;20519;-71
2022/05/08 23:35:28;;;;;;;6.57;3.00;;;;;;;10.16;53.53;101570.31;8597794;33;20479;-71
2022/05/08 23:40:36;;;;;;;8.35;3.80;;;;;;;10.28;52.85;101569.56;8574672;33;20154;-71
2022/05/08 23:45:41;;;;;;;12.77;4.40;;;;;;;10.36;52.49;101569.94;8604923;33;20218;-72
2022/05/08 23:50:44;;;;;;;10.75;3.88;;;;;;;9.92;53.07;101564.59;8614257;33;20144;-72
2022/05/08 23:55:47;;;;;;;5.05;3.17;;;;;;;9.97;53.55;101573.25;8578161;33;20233;-72
